createdAt,value
2016-09-16T11:05:49.067Z,100604
2016-09-16T11:06:05.672Z,100606
2016-09-16T11:06:22.550Z,100606
2016-09-16T11:06:38.744Z,100600
2016-09-16T11:06:55.503Z,100595
2016-09-16T11:07:12.569Z,100592
2016-09-16T11:07:28.967Z,100612
2016-09-16T11:07:46.131Z,100603
2016-09-16T11:08:25.609Z,100603
2016-09-16T11:10:03.166Z,100591
2016-09-16T11:10:20.733Z,100603
2016-09-16T11:10:39.320Z,100595
2016-09-16T11:10:55.710Z,100600
2016-09-16T11:11:12.135Z,100598
2016-09-16T11:11:29.318Z,100598
2016-09-16T11:12:34.818Z,100600
2016-09-16T11:12:52.419Z,100600
2016-09-16T11:13:08.937Z,100597
2016-09-16T11:13:25.090Z,100600
2016-09-16T11:18:58.767Z,100588
2016-09-16T11:19:15.928Z,100591
2016-09-16T11:20:31.682Z,100588
2016-09-16T11:20:48.687Z,100591
2016-09-16T11:21:05.653Z,100600
2016-09-16T11:21:23.815Z,100577
2016-09-16T11:22:03.325Z,100583
2016-09-16T11:23:46.697Z,100575
2016-09-16T11:24:04.155Z,100586
2016-09-16T11:24:21.018Z,100572
2016-09-16T11:24:38.363Z,100581
2016-09-16T11:24:56.870Z,100573
2016-09-16T11:25:13.952Z,100567
2016-09-16T11:25:31.676Z,100570
2016-09-16T11:25:47.913Z,100571
2016-09-16T11:26:04.563Z,100559
2016-09-16T11:26:21.622Z,100551
2016-09-16T11:26:47.667Z,100551
2016-09-16T11:27:05.038Z,100548
2016-09-16T11:28:08.010Z,100543
2016-09-16T11:30:31.210Z,100561
2016-09-16T11:30:49.471Z,100560
2016-09-16T11:31:07.545Z,100563
2016-09-16T11:31:25.688Z,100560
2016-09-16T11:31:43.942Z,100560
2016-09-16T11:32:00.751Z,100560
2016-09-16T11:32:26.316Z,100560
2016-09-16T11:32:42.460Z,100572
2016-09-16T11:32:59.695Z,100566
2016-09-16T11:33:17.622Z,100563
2016-09-16T11:33:33.689Z,100563
2016-09-16T11:33:50.221Z,100569
2016-09-16T11:34:08.514Z,100569
2016-09-16T11:34:25.014Z,100577
2016-09-16T11:34:42.391Z,100577
2016-09-16T11:34:59.716Z,100583
2016-09-16T11:35:17.128Z,100590
2016-09-16T11:35:36.341Z,100587
2016-09-16T11:35:54.058Z,100582
2016-09-16T11:36:34.077Z,100593
2016-09-16T11:38:11.493Z,100589
2016-09-16T11:38:29.405Z,100581
2016-09-16T11:38:46.530Z,100575
2016-09-16T11:39:03.382Z,100581
2016-09-16T11:39:21.947Z,100589
2016-09-16T11:39:39.220Z,100586
2016-09-16T11:39:56.455Z,100589
2016-09-16T11:40:36.356Z,100578
2016-09-16T11:50:14.055Z,100578
2016-09-16T11:51:17.410Z,100569
2016-09-16T11:51:35.193Z,100569
2016-09-16T11:51:51.918Z,100566
2016-09-16T11:52:30.151Z,100569
2016-09-16T11:52:46.973Z,100570
2016-09-16T11:53:03.788Z,100561
2016-09-16T11:53:20.623Z,100564
2016-09-16T11:53:37.419Z,100558
2016-09-16T11:53:54.366Z,100558
2016-09-16T11:54:11.278Z,100567
2016-09-16T11:54:28.237Z,100553
2016-09-16T11:54:44.871Z,100559
2016-09-16T11:55:01.904Z,100559
2016-09-16T11:55:18.931Z,100559
2016-09-16T11:55:35.703Z,100554
2016-09-16T11:55:52.697Z,100565
2016-09-16T11:56:09.308Z,100559
2016-09-16T11:56:27.058Z,100571
2016-09-16T11:56:50.150Z,100565
2016-09-16T11:57:07.329Z,100559
2016-09-16T11:57:43.215Z,100557
2016-09-16T11:58:00.572Z,100560
2016-09-16T11:59:16.308Z,100557
2016-09-16T12:01:38.919Z,100562
2016-09-16T12:06:49.622Z,100570
2016-09-16T12:07:06.010Z,100576
2016-09-16T12:07:22.381Z,100569
2016-09-16T12:07:39.321Z,100575
2016-09-16T12:07:55.958Z,100569
2016-09-16T12:08:12.623Z,100569
2016-09-16T12:08:29.235Z,100560
2016-09-16T12:08:45.645Z,100563
2016-09-16T12:09:21.537Z,100560
2016-09-16T12:09:38.443Z,100559
2016-09-16T12:09:54.672Z,100568
2016-09-16T12:10:11.070Z,100565
2016-09-16T12:10:27.244Z,100568
2016-09-16T12:10:43.832Z,100559
2016-09-16T12:10:59.977Z,100562
2016-09-16T12:11:17.022Z,100559
2016-09-16T12:11:42.220Z,100556
2016-09-16T12:11:58.828Z,100559
2016-09-16T12:12:16.025Z,100550
2016-09-16T12:12:32.623Z,100556
2016-09-16T12:12:49.391Z,100553
2016-09-16T12:13:06.157Z,100559
2016-09-16T12:13:23.022Z,100556
2016-09-16T12:13:41.046Z,100545
2016-09-16T12:14:20.893Z,100559
2016-09-16T12:14:37.292Z,100556
2016-09-16T12:14:53.940Z,100553
2016-09-16T12:15:33.097Z,100556
2016-09-16T12:16:11.196Z,100550
2016-09-16T12:16:28.291Z,100559
2016-09-16T12:17:55.135Z,100556
2016-09-16T12:18:57.392Z,100553
2016-09-16T12:20:03.238Z,100562
2016-09-16T12:20:21.068Z,100550
2016-09-16T12:20:37.533Z,100550
2016-09-16T12:21:41.651Z,100565
2016-09-16T12:21:58.191Z,100559
2016-09-16T12:22:14.108Z,100562
2016-09-16T12:22:30.899Z,100553
2016-09-16T12:22:48.557Z,100559
2016-09-16T12:23:05.368Z,100559
2016-09-16T12:23:21.753Z,100556
2016-09-16T12:23:38.496Z,100562
2016-09-16T12:23:55.680Z,100556
2016-09-16T12:24:12.509Z,100567
2016-09-16T12:24:28.872Z,100559
2016-09-16T12:24:45.694Z,100562
2016-09-16T12:25:02.446Z,100565
2016-09-16T12:25:18.828Z,100562
2016-09-16T12:25:36.594Z,100559
2016-09-16T12:25:53.237Z,100556
2016-09-16T12:26:09.607Z,100547
2016-09-16T12:26:26.348Z,100553
2016-09-16T12:26:42.739Z,100559
2016-09-16T12:26:59.111Z,100562
2016-09-16T12:27:15.935Z,100559
2016-09-16T12:27:34.144Z,100550
2016-09-16T12:27:50.516Z,100568
2016-09-16T12:28:08.087Z,100565
2016-09-16T12:28:33.869Z,100565
2016-09-16T12:28:50.241Z,100565
2016-09-16T12:29:06.619Z,100565
2016-09-16T12:29:22.538Z,100562
2016-09-16T12:29:38.887Z,100562
2016-09-16T12:29:55.479Z,100550
2016-09-16T12:30:12.220Z,100556
2016-09-16T12:30:28.836Z,100559
2016-09-16T12:30:45.569Z,100550
2016-09-16T12:31:01.486Z,100559
2016-09-16T12:31:18.084Z,100556
2016-09-16T12:31:34.684Z,100559
2016-09-16T12:31:51.206Z,100562
2016-09-16T12:32:08.193Z,100559
2016-09-16T12:32:24.575Z,100565
2016-09-16T12:32:41.051Z,100559
2016-09-16T12:32:57.853Z,100564
2016-09-16T12:33:14.368Z,100562
2016-09-16T12:33:30.975Z,100565
2016-09-16T12:33:47.349Z,100559
2016-09-16T12:34:04.922Z,100556
2016-09-16T12:34:40.819Z,100550
2016-09-16T12:50:48.782Z,100548
2016-09-16T12:52:02.991Z,100548
2016-09-16T12:53:09.596Z,100545
2016-09-16T12:53:26.423Z,100553
2016-09-16T12:53:43.026Z,100542
2016-09-16T12:54:45.636Z,100545
2016-09-16T12:55:02.778Z,100542
2016-09-16T12:56:17.427Z,100556
2016-09-16T12:56:35.032Z,100548
2016-09-16T12:56:51.898Z,100562
2016-09-16T12:57:10.330Z,100542
2016-09-16T12:57:27.165Z,100542
2016-09-16T12:58:09.202Z,100551
2016-09-16T12:58:25.198Z,100542
2016-09-16T12:58:41.877Z,100536
2016-09-16T12:58:59.199Z,100551
2016-09-16T12:59:16.035Z,100545
2016-09-16T12:59:33.997Z,100539
2016-09-16T12:59:50.535Z,100548
2016-09-16T13:00:08.642Z,100542
2016-09-16T13:00:25.618Z,100542
2016-09-16T13:00:42.382Z,100542
2016-09-16T13:01:01.173Z,100542
2016-09-16T13:01:18.030Z,100536
2016-09-16T13:01:54.745Z,100545
2016-09-16T13:04:19.924Z,100536
2016-09-16T13:04:37.527Z,100539
2016-09-16T13:04:54.026Z,100542
2016-09-16T13:05:33.043Z,100539
2016-09-16T13:05:49.640Z,100542
2016-09-16T13:06:07.266Z,100533
2016-09-16T13:06:24.349Z,100536
2016-09-16T13:06:41.291Z,100533
2016-09-16T13:06:58.950Z,100536
2016-09-16T13:07:15.925Z,100536
2016-09-16T13:07:32.584Z,100524
2016-09-16T13:07:49.370Z,100542
2016-09-16T13:08:06.204Z,100542
2016-09-16T13:08:23.275Z,100533
2016-09-16T13:08:40.159Z,100536
2016-09-16T13:09:06.656Z,100533
2016-09-16T13:09:24.394Z,100536
2016-09-16T13:09:41.241Z,100542
2016-09-16T13:12:04.275Z,100548
2016-09-16T13:12:47.605Z,100539
2016-09-16T14:02:46.991Z,100506
2016-09-16T14:03:03.510Z,100504
2016-09-16T14:03:19.657Z,100506
2016-09-16T14:03:36.027Z,100498
2016-09-16T14:03:52.394Z,100509
2016-09-16T14:04:08.978Z,100503
2016-09-16T14:04:25.338Z,100506
2016-09-16T14:04:41.937Z,100506
2016-09-16T14:04:58.657Z,100506
2016-09-16T14:05:14.792Z,100503
2016-09-16T14:05:31.385Z,100501
2016-09-16T14:05:47.278Z,100506
2016-09-16T14:06:03.872Z,100515
2016-09-16T14:06:20.473Z,100509
2016-09-16T14:06:36.374Z,100504
2016-09-16T14:06:52.992Z,100499
2016-09-16T14:07:09.582Z,100508
2016-09-16T14:07:26.179Z,100496
2016-09-16T14:07:42.543Z,100499
2016-09-16T14:07:59.130Z,100514
2016-09-16T14:08:15.489Z,100502
2016-09-16T14:08:31.867Z,100499
2016-09-16T14:08:48.227Z,100499
2016-09-16T14:09:04.623Z,100507
2016-09-16T14:09:21.120Z,100507
2016-09-16T14:09:37.614Z,100504
2016-09-16T14:09:53.969Z,100507
2016-09-16T14:10:10.330Z,100504
2016-09-16T14:10:27.052Z,100499
2016-09-16T14:10:43.413Z,100498
2016-09-16T14:11:00.006Z,100507
2016-09-16T14:11:16.739Z,100501
2016-09-16T14:11:33.240Z,100501
2016-09-16T14:11:49.838Z,100504
2016-09-16T14:12:06.563Z,100501
2016-09-16T14:12:23.149Z,100490
2016-09-16T14:12:39.749Z,100501
2016-09-16T14:12:56.352Z,100501
2016-09-16T14:13:12.725Z,100504
2016-09-16T14:13:29.312Z,100510
2016-09-16T14:13:45.810Z,100501
2016-09-16T14:14:02.412Z,100498
2016-09-16T14:14:18.698Z,100504
2016-09-16T14:14:35.188Z,100507
2016-09-16T14:14:51.334Z,100507
2016-09-16T14:15:07.605Z,100498
2016-09-16T14:15:23.980Z,100498
2016-09-16T14:15:40.347Z,100501
2016-09-16T14:15:56.937Z,100510
2016-09-16T14:16:13.528Z,100510
2016-09-16T14:16:30.126Z,100504
2016-09-16T14:16:46.864Z,100507
2016-09-16T14:17:03.465Z,100498
2016-09-16T14:17:19.606Z,100498
2016-09-16T14:17:35.984Z,100504
2016-09-16T14:17:52.572Z,100513
2016-09-16T14:18:09.171Z,100507
2016-09-16T14:18:25.675Z,100513
2016-09-16T14:18:42.284Z,100498
2016-09-16T14:18:58.648Z,100501
2016-09-16T14:19:15.023Z,100510
2016-09-16T14:19:31.624Z,100504
2016-09-16T14:19:47.764Z,100504
2016-09-16T14:20:04.138Z,100489
2016-09-16T14:20:20.281Z,100501
2016-09-16T14:20:36.430Z,100498
2016-09-16T14:20:53.159Z,100495
2016-09-16T14:21:09.653Z,100492
2016-09-16T14:21:26.029Z,100501
2016-09-16T14:21:42.613Z,100495
2016-09-16T14:21:58.889Z,100501
2016-09-16T14:22:15.394Z,100492
2016-09-16T14:22:31.993Z,100498
2016-09-16T14:22:48.597Z,100501
2016-09-16T14:23:04.979Z,100498
2016-09-16T14:23:21.570Z,100498
2016-09-16T14:23:37.938Z,100498
2016-09-16T14:23:54.540Z,100504
2016-09-16T14:24:11.137Z,100495
2016-09-16T14:24:27.725Z,100507
2016-09-16T14:24:44.094Z,100507
2016-09-16T14:25:00.468Z,100504
2016-09-16T14:25:17.072Z,100504
2016-09-16T14:25:33.435Z,100492
2016-09-16T14:25:49.567Z,100498
2016-09-16T14:26:06.290Z,100501
2016-09-16T14:26:22.885Z,100507
2016-09-16T14:26:39.381Z,100498
2016-09-16T14:26:55.979Z,100507
2016-09-16T14:27:12.567Z,100504
2016-09-16T14:27:28.938Z,100504
2016-09-16T14:27:45.675Z,100507
2016-09-16T14:28:02.267Z,100495
2016-09-16T14:28:18.866Z,100504
2016-09-16T14:28:35.369Z,100510
2016-09-16T14:28:51.509Z,100501
2016-09-16T14:29:07.885Z,100501
2016-09-16T14:29:24.168Z,100507
2016-09-16T14:29:40.735Z,100498
2016-09-16T14:29:57.332Z,100501
2016-09-16T14:30:13.691Z,100507
2016-09-16T14:30:30.186Z,100507
2016-09-16T14:30:46.323Z,100507
2016-09-16T14:31:02.926Z,100507
2016-09-16T14:31:19.513Z,100513
2016-09-16T14:31:36.123Z,100501
2016-09-16T14:31:52.263Z,100507
2016-09-16T14:32:08.858Z,100510
2016-09-16T14:32:25.582Z,100507
2016-09-16T14:32:42.183Z,100507
2016-09-16T14:32:58.549Z,100507
2016-09-16T14:33:15.145Z,100501
2016-09-16T14:33:31.650Z,100504
2016-09-16T14:33:48.022Z,100510
2016-09-16T14:34:04.379Z,100504
2016-09-16T14:34:20.974Z,100504
2016-09-16T14:34:37.342Z,100501
2016-09-16T14:34:53.712Z,100504
2016-09-16T14:35:09.837Z,100501
2016-09-16T14:35:26.433Z,100501
2016-09-16T14:35:43.024Z,100504
2016-09-16T14:35:59.618Z,100507
2016-09-16T14:36:16.358Z,100509
2016-09-16T14:36:32.718Z,100504
2016-09-16T14:36:49.307Z,100507
2016-09-16T14:37:05.822Z,100501
2016-09-16T14:37:22.197Z,100507
2016-09-16T14:37:38.699Z,100507
2016-09-16T14:37:55.295Z,100515
2016-09-16T14:38:11.885Z,100501
2016-09-16T14:38:28.483Z,100506
2016-09-16T14:38:45.075Z,100515
2016-09-16T14:39:01.446Z,100506
2016-09-16T14:39:17.805Z,100504
2016-09-16T14:39:34.396Z,100512
2016-09-16T14:39:50.768Z,100506
2016-09-16T14:40:07.375Z,100506
2016-09-16T14:40:23.636Z,100498
2016-09-16T14:40:40.222Z,100504
2016-09-16T14:40:56.809Z,100506
2016-09-16T14:41:13.182Z,100506
2016-09-16T14:41:29.775Z,100509
2016-09-16T14:41:46.136Z,100504
2016-09-16T14:42:02.735Z,100512
2016-09-16T14:42:19.323Z,100506
2016-09-16T14:42:35.683Z,100509
2016-09-16T14:42:52.277Z,100512
2016-09-16T14:43:08.882Z,100512
2016-09-16T14:43:25.483Z,100500
2016-09-16T14:43:41.857Z,100506
2016-09-16T14:43:58.225Z,100506
2016-09-16T14:44:14.815Z,100503
2016-09-16T14:44:31.543Z,100506
2016-09-16T14:44:48.131Z,100495
2016-09-16T14:45:04.726Z,100512
2016-09-16T14:45:21.316Z,100512
2016-09-16T14:45:37.810Z,100509
2016-09-16T14:45:54.306Z,100503
2016-09-16T14:46:10.892Z,100506
2016-09-16T14:46:27.626Z,100500
2016-09-16T14:46:44.212Z,100509
2016-09-16T14:47:00.805Z,100509
2016-09-16T14:47:17.161Z,100503
2016-09-16T14:47:33.751Z,100506
2016-09-16T14:47:50.344Z,100503
2016-09-16T14:48:06.937Z,100503
2016-09-16T14:48:23.442Z,100512
2016-09-16T14:48:39.945Z,100500
2016-09-16T14:48:56.086Z,100503
2016-09-16T14:49:12.686Z,100512
2016-09-16T14:49:29.065Z,100509
2016-09-16T14:49:45.670Z,100509
2016-09-16T14:50:02.044Z,100503
2016-09-16T14:50:18.642Z,100512
2016-09-16T14:50:35.014Z,100506
2016-09-16T14:50:51.605Z,100506
2016-09-16T14:51:07.749Z,100506
2016-09-16T14:51:24.111Z,100495
2016-09-16T14:51:40.722Z,100509
2016-09-16T14:51:57.325Z,100509
2016-09-16T14:52:13.929Z,100503
2016-09-16T14:52:30.310Z,100500
2016-09-16T14:52:46.670Z,100497
2016-09-16T14:53:03.265Z,100509
2016-09-16T14:53:19.639Z,100503
2016-09-16T14:53:36.024Z,100500
2016-09-16T14:53:52.392Z,100506
2016-09-16T14:54:08.987Z,100515
2016-09-16T14:54:25.731Z,100524
2016-09-16T14:54:41.876Z,100503
2016-09-16T14:54:58.150Z,100512
2016-09-16T14:55:14.743Z,100512
2016-09-16T14:55:31.354Z,100515
2016-09-16T14:55:47.714Z,100515
2016-09-16T14:56:04.302Z,100518
2016-09-16T14:56:20.903Z,100515
2016-09-16T14:56:37.408Z,100506
2016-09-16T14:56:53.779Z,100518
2016-09-16T14:57:10.169Z,100500
2016-09-16T14:57:26.755Z,100509
2016-09-16T14:57:43.356Z,100521
2016-09-16T14:57:59.741Z,100506
2016-09-16T14:58:16.107Z,100509
2016-09-16T14:58:32.246Z,100506
2016-09-16T14:58:48.602Z,100509
2016-09-16T14:59:04.513Z,100521
2016-09-16T14:59:21.250Z,100512
2016-09-16T14:59:37.848Z,100509
2016-09-16T14:59:53.993Z,100518
2016-09-16T15:00:10.364Z,100503
2016-09-16T15:00:26.948Z,100503
2016-09-16T15:00:43.543Z,100512
2016-09-16T15:01:00.128Z,100509
2016-09-16T15:01:16.498Z,100509
2016-09-16T15:01:32.407Z,100512
2016-09-16T15:01:49.010Z,100509
2016-09-16T15:02:05.376Z,100506
2016-09-16T15:02:21.756Z,100515
2016-09-16T15:02:38.362Z,100515
2016-09-16T15:02:54.953Z,100512
2016-09-16T15:03:11.559Z,100518
2016-09-16T15:03:27.925Z,100515
2016-09-16T15:03:44.290Z,100515
2016-09-16T15:04:00.901Z,100518
2016-09-16T15:04:17.497Z,100509
2016-09-16T15:04:34.084Z,100509
2016-09-16T15:04:50.448Z,100512
2016-09-16T15:05:06.354Z,100521
2016-09-16T15:05:22.721Z,100515
2016-09-16T15:05:39.317Z,100512
2016-09-16T15:05:55.682Z,100521
2016-09-16T15:06:12.275Z,100509
2016-09-16T15:06:28.862Z,100512
2016-09-16T15:06:45.025Z,100509
2016-09-16T15:07:01.528Z,100512
2016-09-16T15:07:18.133Z,100506
2016-09-16T15:07:34.277Z,100509
2016-09-16T15:07:50.419Z,100500
2016-09-16T15:08:07.016Z,100500
2016-09-16T15:08:23.395Z,100498
2016-09-16T15:08:39.992Z,100503
2016-09-16T15:08:55.903Z,100503
2016-09-16T15:09:12.501Z,100509
2016-09-16T15:09:29.093Z,100506
2016-09-16T15:09:45.464Z,100506
2016-09-16T15:10:01.839Z,100500
2016-09-16T15:10:18.435Z,100500
2016-09-16T15:10:34.929Z,100500
2016-09-16T15:10:51.528Z,100501
2016-09-16T15:11:07.917Z,100486
2016-09-16T15:11:24.420Z,100495
2016-09-16T15:11:41.015Z,100495
2016-09-16T15:11:57.510Z,100509
2016-09-16T15:12:13.646Z,100500
2016-09-16T15:12:30.392Z,100492
2016-09-16T15:12:46.547Z,100498
2016-09-16T15:13:03.133Z,100498
2016-09-16T15:13:19.500Z,100492
2016-09-16T15:13:35.408Z,100495
2016-09-16T15:13:52.004Z,100495
2016-09-16T15:14:08.131Z,100495
2016-09-16T15:14:24.723Z,100497
2016-09-16T15:14:40.854Z,100495
2016-09-16T15:14:57.222Z,100486
2016-09-16T15:15:13.583Z,100489
2016-09-16T15:15:30.079Z,100489
2016-09-16T15:15:46.213Z,100492
2016-09-16T15:16:02.828Z,100483
2016-09-16T15:16:18.960Z,100489
2016-09-16T15:16:35.329Z,100486
2016-09-16T15:16:51.706Z,100486
2016-09-16T15:17:08.070Z,100492
2016-09-16T15:17:24.793Z,100492
2016-09-16T15:17:41.172Z,100497
2016-09-16T15:17:57.683Z,100492
2016-09-16T15:18:13.823Z,100494
2016-09-16T15:18:30.196Z,100497
2016-09-16T15:18:46.788Z,100494
2016-09-16T15:19:03.050Z,100492
2016-09-16T15:19:19.425Z,100492
2016-09-16T15:19:36.018Z,100492
2016-09-16T15:19:52.246Z,100492
2016-09-16T15:20:08.619Z,100486
2016-09-16T15:20:24.898Z,100486
2016-09-16T15:20:41.035Z,100494
2016-09-16T15:20:57.550Z,100483
2016-09-16T15:21:14.268Z,100486
2016-09-16T15:21:30.632Z,100492
2016-09-16T15:21:47.007Z,100497
2016-09-16T15:22:03.150Z,100497
2016-09-16T15:22:19.744Z,100494
2016-09-16T15:22:36.211Z,100492
2016-09-16T15:22:53.171Z,100489
2016-09-16T15:23:09.541Z,100489
2016-09-16T15:23:25.913Z,100483
2016-09-16T15:23:42.512Z,100480
2016-09-16T15:23:58.724Z,100483
2016-09-16T15:24:15.451Z,100486
2016-09-16T15:24:31.593Z,100489
2016-09-16T15:24:48.166Z,100494
2016-09-16T15:25:04.905Z,100489
2016-09-16T15:25:21.511Z,100486
2016-09-16T15:25:38.122Z,100486
2016-09-16T15:25:54.491Z,100486
2016-09-16T15:26:11.212Z,100486
2016-09-16T15:26:27.709Z,100489
2016-09-16T15:26:44.305Z,100483
2016-09-16T15:27:01.034Z,100480
2016-09-16T15:27:17.638Z,100486
2016-09-16T15:27:34.234Z,100489
2016-09-16T15:27:50.969Z,100480
2016-09-16T15:28:07.587Z,100486
2016-09-16T15:28:23.960Z,100475
2016-09-16T15:28:40.340Z,100477
2016-09-16T15:28:56.936Z,100475
2016-09-16T15:29:13.537Z,100477
2016-09-16T15:29:30.034Z,100486
2016-09-16T15:29:46.768Z,100477
2016-09-16T15:30:03.371Z,100475
2016-09-16T15:30:19.521Z,100475
2016-09-16T15:30:35.906Z,100480
2016-09-16T15:30:52.506Z,100475
2016-09-16T15:31:09.123Z,100475
2016-09-16T15:31:25.484Z,100472
2016-09-16T15:31:41.856Z,100477
2016-09-16T15:31:58.007Z,100480
2016-09-16T15:32:14.613Z,100475
2016-09-16T15:32:31.220Z,100475
2016-09-16T15:32:47.832Z,100469
2016-09-16T15:33:04.200Z,100472
2016-09-16T15:33:20.822Z,100475
2016-09-16T15:33:36.986Z,100472
2016-09-16T15:33:53.586Z,100472
2016-09-16T15:34:09.958Z,100475
2016-09-16T15:34:26.742Z,100483
2016-09-16T15:34:43.483Z,100475
2016-09-16T15:34:59.866Z,100489
2016-09-16T15:35:16.453Z,100477
2016-09-16T15:35:32.828Z,100469
2016-09-16T15:35:49.212Z,100466
2016-09-16T15:36:05.585Z,100475
2016-09-16T15:36:22.309Z,100472
2016-09-16T15:36:38.904Z,100472
2016-09-16T15:36:55.494Z,100477
2016-09-16T15:37:12.223Z,100475
2016-09-16T15:37:28.826Z,100463
2016-09-16T15:37:45.437Z,100475
2016-09-16T15:38:02.147Z,100466
2016-09-16T15:38:18.528Z,100463
2016-09-16T15:38:35.267Z,100472
2016-09-16T15:38:51.635Z,100466
2016-09-16T15:39:08.240Z,100472
2016-09-16T15:39:24.830Z,100475
2016-09-16T15:39:41.427Z,100475
2016-09-16T15:39:57.939Z,100472
2016-09-16T15:40:14.308Z,100466
2016-09-16T15:40:30.681Z,100469
2016-09-16T15:40:47.053Z,100475
2016-09-16T15:41:03.423Z,100466
2016-09-16T15:41:20.163Z,100466
2016-09-16T15:41:36.530Z,100472
2016-09-16T15:41:53.145Z,100460
2016-09-16T15:42:09.751Z,100469
2016-09-16T15:42:26.132Z,100466
2016-09-16T15:42:42.268Z,100460
2016-09-16T15:42:58.638Z,100463
2016-09-16T15:43:15.019Z,100466
2016-09-16T15:43:31.569Z,100460
2016-09-16T15:43:47.943Z,100463
2016-09-16T15:44:04.568Z,100469
2016-09-16T15:44:21.159Z,100463
2016-09-16T15:44:37.524Z,100469
2016-09-16T15:44:54.130Z,100472
2016-09-16T15:45:10.505Z,100466
2016-09-16T15:45:26.870Z,100466
2016-09-16T15:45:43.468Z,100469
2016-09-16T15:46:00.076Z,100472
2016-09-16T15:46:16.672Z,100469
2016-09-16T15:46:33.280Z,100477
2016-09-16T15:46:49.875Z,100466
2016-09-16T15:47:06.470Z,100460
2016-09-16T15:47:23.335Z,100469
2016-09-16T15:47:39.695Z,100472
2016-09-16T15:47:56.423Z,100480
2016-09-16T15:48:12.785Z,100472
2016-09-16T15:48:29.386Z,100469
2016-09-16T15:48:45.989Z,100475
2016-09-16T15:49:02.357Z,100475
2016-09-16T15:49:18.732Z,100472
2016-09-16T15:49:35.104Z,100469
2016-09-16T15:49:51.268Z,100485
2016-09-16T15:50:07.861Z,100472
2016-09-16T15:50:24.455Z,100469
2016-09-16T15:50:41.052Z,100469
2016-09-16T15:50:57.660Z,100463
2016-09-16T15:51:14.268Z,100469
2016-09-16T15:51:30.870Z,100463
2016-09-16T15:51:47.243Z,100477
2016-09-16T15:52:03.626Z,100475
2016-09-16T15:52:20.219Z,100466
2016-09-16T15:52:36.821Z,100475
2016-09-16T15:52:53.411Z,100475
2016-09-16T15:53:09.782Z,100466
2016-09-16T15:53:26.387Z,100469
2016-09-16T15:53:42.557Z,100479
2016-09-16T15:53:58.704Z,100475
2016-09-16T15:54:15.295Z,100477
2016-09-16T15:54:31.902Z,100475
2016-09-16T15:54:48.264Z,100477
2016-09-16T15:55:04.640Z,100475
2016-09-16T15:55:21.243Z,100477
2016-09-16T15:55:37.995Z,100469
2016-09-16T15:55:54.365Z,100475
2016-09-16T15:56:10.516Z,100477
2016-09-16T15:56:26.653Z,100472
2016-09-16T15:56:43.146Z,100469
2016-09-16T15:56:59.740Z,100475
2016-09-16T15:57:16.334Z,100466
2016-09-16T15:57:32.938Z,100472
2016-09-16T15:57:49.551Z,100475
2016-09-16T15:58:06.160Z,100475
2016-09-16T15:58:22.295Z,100472
2016-09-16T15:58:38.667Z,100475
2016-09-16T15:58:55.040Z,100472
2016-09-16T15:59:11.645Z,100469
2016-09-16T15:59:28.238Z,100482
2016-09-16T15:59:44.839Z,100482
2016-09-16T16:00:01.196Z,100485
2016-09-16T16:00:17.794Z,100472
2016-09-16T16:00:34.391Z,100479
2016-09-16T16:00:50.995Z,100476
2016-09-16T16:01:07.594Z,100476
2016-09-16T16:01:24.470Z,100476
2016-09-16T16:01:40.858Z,100476
2016-09-16T16:01:57.463Z,100472
2016-09-16T16:02:13.840Z,100475
2016-09-16T16:02:30.441Z,100482
2016-09-16T16:02:46.810Z,100476
2016-09-16T16:03:03.096Z,100472
2016-09-16T16:03:19.691Z,100479
2016-09-16T16:03:36.422Z,100476
2016-09-16T16:03:53.034Z,100475
2016-09-16T16:04:09.639Z,100479
2016-09-16T16:04:26.135Z,100474
2016-09-16T16:04:42.877Z,100472
2016-09-16T16:04:59.249Z,100472
2016-09-16T16:05:15.178Z,100472
2016-09-16T16:05:31.534Z,100476
2016-09-16T16:05:47.679Z,100474
2016-09-16T16:06:04.286Z,100466
2016-09-16T16:06:20.874Z,100469
2016-09-16T16:06:37.484Z,100476
2016-09-16T16:06:54.076Z,100469
2016-09-16T16:07:10.434Z,100466
2016-09-16T16:07:27.044Z,100463
2016-09-16T16:07:43.546Z,100474
2016-09-16T16:08:00.125Z,100466
2016-09-16T16:08:16.258Z,100460
2016-09-16T16:08:32.639Z,100474
2016-09-16T16:08:49.008Z,100466
2016-09-16T16:09:05.605Z,100472
2016-09-16T16:09:22.217Z,100472
2016-09-16T16:09:38.819Z,100474
2016-09-16T16:09:55.411Z,100469
2016-09-16T16:10:11.784Z,100466
2016-09-16T16:10:28.144Z,100463
2016-09-16T16:10:44.513Z,100471
2016-09-16T16:11:01.102Z,100476
2016-09-16T16:11:17.833Z,100474
2016-09-16T16:11:34.200Z,100460
2016-09-16T16:11:50.569Z,100466
2016-09-16T16:12:07.208Z,100466
2016-09-16T16:12:23.555Z,100471
2016-09-16T16:12:39.700Z,100479
2016-09-16T16:12:55.835Z,100471
2016-09-16T16:13:11.976Z,100469
2016-09-16T16:13:28.359Z,100479
2016-09-16T16:13:44.969Z,100471
2016-09-16T16:14:01.565Z,100474
2016-09-16T16:14:17.940Z,100476
2016-09-16T16:14:34.552Z,100482
2016-09-16T16:14:51.286Z,100485
2016-09-16T16:15:07.662Z,100479
2016-09-16T16:15:24.404Z,100474
2016-09-16T16:15:40.996Z,100479
2016-09-16T16:15:57.588Z,100474
2016-09-16T16:16:13.971Z,100479
2016-09-16T16:16:30.344Z,100476
2016-09-16T16:16:46.842Z,100479
2016-09-16T16:17:03.216Z,100476
2016-09-16T16:17:19.798Z,100474
2016-09-16T16:17:36.407Z,100471
2016-09-16T16:17:52.788Z,100479
2016-09-16T16:18:09.470Z,100476
2016-09-16T16:18:26.068Z,100463
2016-09-16T16:18:42.665Z,100469
2016-09-16T16:18:58.792Z,100471
2016-09-16T16:19:15.152Z,100471
2016-09-16T16:19:31.527Z,100469
2016-09-16T16:19:47.449Z,100476
2016-09-16T16:20:03.946Z,100457
2016-09-16T16:20:20.554Z,100469
2016-09-16T16:20:36.470Z,100474
2016-09-16T16:20:53.070Z,100466
2016-09-16T16:21:09.680Z,100457
2016-09-16T16:21:26.043Z,100466
2016-09-16T16:21:42.402Z,100466
2016-09-16T16:21:59.361Z,100471
2016-09-16T16:22:15.740Z,100463
2016-09-16T16:22:32.347Z,100469
2016-09-16T16:22:49.086Z,100469
2016-09-16T16:23:05.680Z,100469
2016-09-16T16:23:22.037Z,100471
2016-09-16T16:23:38.635Z,100471
2016-09-16T16:23:55.007Z,100460
2016-09-16T16:24:11.598Z,100469
2016-09-16T16:24:28.198Z,100471
2016-09-16T16:24:44.807Z,100469
2016-09-16T16:25:01.317Z,100474
2016-09-16T16:25:17.685Z,100474
2016-09-16T16:25:34.290Z,100463
2016-09-16T16:25:50.901Z,100474
2016-09-16T16:26:07.038Z,100469
2016-09-16T16:26:23.418Z,100485
2016-09-16T16:26:40.003Z,100474
2016-09-16T16:26:56.385Z,100479
2016-09-16T16:27:13.000Z,100476
2016-09-16T16:27:29.370Z,100485
2016-09-16T16:27:45.746Z,100476
2016-09-16T16:28:02.362Z,100476
2016-09-16T16:28:18.739Z,100485